createdAt,value
2019-03-30T00:01:56.247Z,10.00
2019-03-30T00:04:25.333Z,10.00
2019-03-30T00:06:53.893Z,10.00
2019-03-30T00:09:23.232Z,9.90
2019-03-30T00:11:52.501Z,9.90
2019-03-30T00:14:21.146Z,9.90
2019-03-30T00:16:49.990Z,9.80
2019-03-30T00:19:18.963Z,9.80
2019-03-30T00:21:48.205Z,9.80
2019-03-30T00:24:17.141Z,9.70
2019-03-30T00:26:45.595Z,9.70
2019-03-30T00:29:14.657Z,9.70
2019-03-30T00:31:43.627Z,9.70
2019-03-30T00:34:12.859Z,9.60
2019-03-30T00:36:42.520Z,9.60
2019-03-30T00:39:11.735Z,9.60
2019-03-30T00:41:40.407Z,9.60
2019-03-30T00:44:09.456Z,9.50
2019-03-30T00:46:38.100Z,9.40
2019-03-30T00:49:07.391Z,9.40
2019-03-30T00:51:36.055Z,9.40
2019-03-30T00:54:04.891Z,9.30
2019-03-30T00:56:33.856Z,9.30
2019-03-30T00:59:02.965Z,9.20
2019-03-30T01:01:31.739Z,9.20
2019-03-30T01:04:00.732Z,9.10
2019-03-30T01:06:29.436Z,9.10
2019-03-30T01:08:58.412Z,9.00
2019-03-30T01:11:27.739Z,8.90
2019-03-30T01:13:56.401Z,8.90
2019-03-30T01:16:25.191Z,8.90
2019-03-30T01:18:54.717Z,8.90
2019-03-30T01:21:23.800Z,8.80
2019-03-30T01:23:53.018Z,8.80
2019-03-30T01:26:21.631Z,8.80
2019-03-30T01:28:50.050Z,8.70
2019-03-30T01:31:19.060Z,8.70
2019-03-30T01:33:48.249Z,8.60
2019-03-30T01:36:17.361Z,8.50
2019-03-30T01:38:46.004Z,8.50
2019-03-30T01:41:15.026Z,8.50
2019-03-30T01:43:44.331Z,8.50
2019-03-30T01:46:13.308Z,8.50
2019-03-30T01:48:42.019Z,8.50
2019-03-30T01:51:11.302Z,8.40
2019-03-30T01:53:40.285Z,8.40
2019-03-30T01:56:09.304Z,8.40
2019-03-30T01:58:38.079Z,8.40
2019-03-30T02:01:07.292Z,8.50
2019-03-30T02:03:36.223Z,8.40
2019-03-30T02:06:05.456Z,8.40
2019-03-30T02:08:33.921Z,8.40
2019-03-30T02:11:03.284Z,8.40
2019-03-30T02:13:31.911Z,8.40
2019-03-30T02:16:01.500Z,8.40
2019-03-30T02:18:30.873Z,8.40
2019-03-30T02:20:59.552Z,8.40
2019-03-30T02:23:28.828Z,8.40
2019-03-30T02:25:57.528Z,8.40
2019-03-30T02:28:29.574Z,8.50
2019-03-30T02:30:59.102Z,8.50
2019-03-30T02:33:28.004Z,8.40
2019-03-30T02:35:57.159Z,8.50
2019-03-30T02:38:25.545Z,8.40
2019-03-30T02:40:54.206Z,8.40
2019-03-30T02:43:23.243Z,8.40
2019-03-30T02:45:52.349Z,8.40
2019-03-30T02:48:21.525Z,8.30
2019-03-30T02:50:50.842Z,8.30
2019-03-30T02:53:19.815Z,8.30
2019-03-30T02:55:48.323Z,8.20
2019-03-30T02:58:17.298Z,8.20
2019-03-30T03:00:46.497Z,8.10
2019-03-30T03:03:15.173Z,8.00
2019-03-30T03:05:43.961Z,8.00
2019-03-30T03:08:13.198Z,8.00
2019-03-30T03:10:42.161Z,7.90
2019-03-30T03:13:11.249Z,7.90
2019-03-30T03:15:39.925Z,7.80
2019-03-30T03:18:08.969Z,7.80
2019-03-30T03:20:37.592Z,7.80
2019-03-30T03:23:06.592Z,7.80
2019-03-30T03:25:34.981Z,7.70
2019-03-30T03:28:17.049Z,7.70
2019-03-30T03:30:44.081Z,7.70
2019-03-30T03:33:18.210Z,7.70
2019-03-30T03:35:44.984Z,7.70
2019-03-30T03:38:13.577Z,7.60
2019-03-30T03:40:53.125Z,7.60
2019-03-30T03:43:22.305Z,7.50
2019-03-30T03:45:51.288Z,7.50
2019-03-30T03:48:20.323Z,7.50
2019-03-30T03:50:56.531Z,7.50
2019-03-30T03:53:25.049Z,7.40
2019-03-30T03:55:54.408Z,7.40
2019-03-30T03:58:25.362Z,7.40
2019-03-30T04:00:57.171Z,7.30
2019-03-30T04:03:28.249Z,7.20
2019-03-30T04:05:59.637Z,7.10
2019-03-30T04:08:30.033Z,7.00
2019-03-30T04:10:58.984Z,6.90
2019-03-30T04:13:28.880Z,6.70
2019-03-30T04:15:57.670Z,6.60
2019-03-30T04:18:29.620Z,6.50
2019-03-30T04:20:58.747Z,6.40
2019-03-30T04:23:27.375Z,6.40
2019-03-30T04:25:56.596Z,6.30
2019-03-30T04:28:27.756Z,6.30
2019-03-30T04:30:56.151Z,6.40
2019-03-30T04:33:24.433Z,6.40
2019-03-30T04:35:53.768Z,6.30
2019-03-30T04:38:22.052Z,6.20
2019-03-30T04:40:50.611Z,6.20
2019-03-30T04:43:18.880Z,6.10
2019-03-30T04:45:47.157Z,6.10
2019-03-30T04:48:15.437Z,6.00
2019-03-30T04:50:43.690Z,6.00
2019-03-30T04:53:11.940Z,6.00
2019-03-30T04:55:40.590Z,6.00
2019-03-30T04:58:09.701Z,6.00
2019-03-30T05:00:38.160Z,6.00
2019-03-30T05:03:06.411Z,6.00
2019-03-30T05:05:34.664Z,5.90
2019-03-30T05:08:03.011Z,5.90
2019-03-30T05:10:31.270Z,5.80
2019-03-30T05:12:59.517Z,5.70
2019-03-30T05:15:27.764Z,5.70
2019-03-30T05:17:56.024Z,5.70
2019-03-30T05:20:24.282Z,5.70
2019-03-30T05:22:52.580Z,5.70
2019-03-30T05:25:20.840Z,5.80
2019-03-30T05:27:49.096Z,5.80
2019-03-30T05:30:18.023Z,5.80
2019-03-30T05:32:46.255Z,5.90
2019-03-30T05:35:14.542Z,5.90
2019-03-30T05:37:42.801Z,5.80
2019-03-30T05:40:11.241Z,5.80
2019-03-30T05:42:39.513Z,5.80
2019-03-30T05:45:08.006Z,5.70
2019-03-30T05:47:36.255Z,5.70
2019-03-30T05:50:06.899Z,5.70
2019-03-30T05:52:35.835Z,5.70
2019-03-30T05:55:04.490Z,5.90
2019-03-30T05:57:32.664Z,6.30
2019-03-30T06:00:03.192Z,6.70
2019-03-30T06:02:31.902Z,7.30
2019-03-30T06:05:03.146Z,7.70
2019-03-30T06:07:30.260Z,8.20
2019-03-30T06:09:58.530Z,8.60
2019-03-30T06:12:26.843Z,9.10
2019-03-30T06:14:55.069Z,9.50
2019-03-30T06:17:23.312Z,9.80
2019-03-30T06:19:51.634Z,10.20
2019-03-30T06:22:20.679Z,10.50
2019-03-30T06:24:48.988Z,10.80
2019-03-30T06:27:17.244Z,10.90
2019-03-30T06:30:08.664Z,11.20
2019-03-30T06:32:36.952Z,11.80
2019-03-30T06:35:05.383Z,11.90
2019-03-30T06:37:33.687Z,12.20
2019-03-30T06:40:02.597Z,12.40
2019-03-30T06:42:30.869Z,12.70
2019-03-30T06:44:59.195Z,12.90
2019-03-30T06:47:27.843Z,12.80
2019-03-30T06:49:56.149Z,13.10
2019-03-30T06:52:24.397Z,13.30
2019-03-30T06:54:53.069Z,13.50
2019-03-30T06:57:21.319Z,13.90
2019-03-30T06:59:49.952Z,14.30
2019-03-30T07:02:18.621Z,14.60
2019-03-30T07:04:47.014Z,14.90
2019-03-30T07:07:16.444Z,15.10
2019-03-30T07:09:47.332Z,15.30
2019-03-30T07:12:18.802Z,15.70
2019-03-30T07:14:49.299Z,15.90
2019-03-30T07:17:17.979Z,16.00
2019-03-30T07:19:49.667Z,16.30
2019-03-30T07:22:17.943Z,16.80
2019-03-30T07:24:46.595Z,17.20
2019-03-30T07:27:15.692Z,17.40
2019-03-30T07:29:43.927Z,17.60
2019-03-30T07:32:12.247Z,17.70
2019-03-30T07:34:41.860Z,17.80
2019-03-30T07:37:10.464Z,17.80
2019-03-30T07:39:38.747Z,17.50
2019-03-30T07:42:07.001Z,17.10
2019-03-30T07:44:35.262Z,17.00
2019-03-30T07:47:03.523Z,17.10
2019-03-30T07:49:31.815Z,17.40
2019-03-30T07:52:00.082Z,17.70
2019-03-30T07:54:28.334Z,17.90
2019-03-30T07:57:04.983Z,17.90
2019-03-30T07:59:26.637Z,18.00
2019-03-30T08:01:54.899Z,18.00
2019-03-30T08:04:23.184Z,17.90
2019-03-30T08:06:51.427Z,17.70
2019-03-30T08:09:19.689Z,17.80
2019-03-30T08:11:48.280Z,18.20
2019-03-30T08:14:16.528Z,18.50
2019-03-30T08:16:44.811Z,18.80
2019-03-30T08:19:13.069Z,19.10
2019-03-30T08:21:41.959Z,19.40
2019-03-30T08:24:10.318Z,19.50
2019-03-30T08:26:38.549Z,19.60
2019-03-30T08:29:06.839Z,19.60
2019-03-30T08:31:35.107Z,19.80
2019-03-30T08:34:03.684Z,20.10
2019-03-30T08:36:32.000Z,20.40
2019-03-30T08:39:00.620Z,20.60
2019-03-30T08:41:28.876Z,20.50
2019-03-30T08:43:57.133Z,20.40
2019-03-30T08:46:25.368Z,20.10
2019-03-30T08:48:53.651Z,20.40
2019-03-30T08:51:22.229Z,20.50
2019-03-30T08:53:54.826Z,20.80
2019-03-30T08:56:20.558Z,20.90
2019-03-30T08:58:48.796Z,20.50
2019-03-30T09:01:17.071Z,20.90
2019-03-30T09:03:45.305Z,21.30
2019-03-30T09:06:13.595Z,21.30
2019-03-30T09:08:41.855Z,21.10
2019-03-30T09:11:10.095Z,20.80
2019-03-30T09:13:39.597Z,20.60
2019-03-30T09:16:07.867Z,20.90
2019-03-30T09:18:36.132Z,21.20
2019-03-30T09:21:04.476Z,21.10
2019-03-30T09:23:32.799Z,21.00
2019-03-30T09:26:01.068Z,20.80
2019-03-30T09:28:29.299Z,21.10
2019-03-30T09:30:57.563Z,21.30
2019-03-30T09:33:25.866Z,21.20
2019-03-30T09:36:07.614Z,21.70
2019-03-30T09:38:35.786Z,22.20
2019-03-30T09:41:04.040Z,21.80
2019-03-30T09:43:33.131Z,21.20
2019-03-30T09:46:01.368Z,21.00
2019-03-30T09:48:29.619Z,21.00
2019-03-30T09:50:57.865Z,20.90
2019-03-30T09:53:26.592Z,21.00
2019-03-30T09:55:54.869Z,21.10
2019-03-30T09:58:23.107Z,21.30
2019-03-30T10:00:51.362Z,21.00
2019-03-30T10:03:19.627Z,21.20
2019-03-30T10:05:47.905Z,21.60
2019-03-30T10:08:16.175Z,22.10
2019-03-30T10:10:44.456Z,21.90
2019-03-30T10:13:12.700Z,21.80
2019-03-30T10:15:40.935Z,21.80
2019-03-30T10:18:09.190Z,21.70
2019-03-30T10:20:37.444Z,21.70
2019-03-30T10:23:05.672Z,21.20
2019-03-30T10:25:33.917Z,21.20
2019-03-30T10:28:02.159Z,21.30
2019-03-30T10:30:30.487Z,21.60
2019-03-30T10:32:58.765Z,22.10
2019-03-30T10:35:27.064Z,22.70
2019-03-30T10:37:55.376Z,23.20
2019-03-30T10:40:23.573Z,23.20
2019-03-30T10:42:51.815Z,23.20
2019-03-30T10:45:20.372Z,22.90
2019-03-30T10:47:48.611Z,22.80
2019-03-30T10:50:16.848Z,23.00
2019-03-30T10:52:45.087Z,23.10
2019-03-30T10:55:13.316Z,23.10
2019-03-30T10:57:42.656Z,23.10
2019-03-30T11:00:13.563Z,23.00
2019-03-30T11:02:41.809Z,23.30
2019-03-30T11:05:10.084Z,23.70
2019-03-30T11:07:38.312Z,23.80
2019-03-30T11:10:07.402Z,24.20
2019-03-30T11:12:35.642Z,24.20
2019-03-30T11:15:04.422Z,23.90
2019-03-30T11:17:32.714Z,24.10
2019-03-30T11:20:00.942Z,24.50
2019-03-30T11:22:29.200Z,24.70
2019-03-30T11:25:07.226Z,24.60
2019-03-30T11:27:27.523Z,24.40
2019-03-30T11:29:55.772Z,24.10
2019-03-30T11:32:24.528Z,23.60
2019-03-30T11:34:52.812Z,23.40
2019-03-30T11:37:21.054Z,23.20
2019-03-30T11:39:49.299Z,23.20
2019-03-30T11:42:17.557Z,23.60
2019-03-30T11:44:45.831Z,23.40
2019-03-30T11:47:14.096Z,23.60
2019-03-30T11:49:42.355Z,23.40
2019-03-30T11:52:10.595Z,23.20
2019-03-30T11:54:38.859Z,22.70
2019-03-30T11:57:07.137Z,22.60
2019-03-30T11:59:35.404Z,22.70
2019-03-30T12:02:04.145Z,23.00
2019-03-30T12:04:32.419Z,22.90
2019-03-30T12:07:00.647Z,22.80
2019-03-30T12:09:28.912Z,22.80
2019-03-30T12:11:57.239Z,22.50
2019-03-30T12:14:25.488Z,22.40
2019-03-30T12:16:53.759Z,22.70
2019-03-30T12:19:22.065Z,23.10
2019-03-30T12:22:05.662Z,23.20
2019-03-30T12:24:33.589Z,23.50
2019-03-30T12:27:02.392Z,23.30
2019-03-30T12:29:31.348Z,23.20
2019-03-30T12:32:00.341Z,23.40
2019-03-30T12:34:29.009Z,23.20
2019-03-30T12:36:58.243Z,22.80
2019-03-30T12:39:26.796Z,22.90
2019-03-30T12:41:55.579Z,23.00
2019-03-30T12:44:24.879Z,23.00
2019-03-30T12:46:55.119Z,22.80
2019-03-30T12:49:23.459Z,22.80
2019-03-30T12:51:52.491Z,22.90
2019-03-30T12:54:21.688Z,22.90
2019-03-30T12:56:50.808Z,23.10
2019-03-30T12:59:19.867Z,23.10
2019-03-30T13:01:51.892Z,23.10
2019-03-30T13:04:20.623Z,23.00
2019-03-30T13:06:49.370Z,22.70
2019-03-30T13:09:17.892Z,22.60
2019-03-30T13:11:46.543Z,22.30
2019-03-30T13:14:15.554Z,22.20
2019-03-30T13:16:44.371Z,21.90
2019-03-30T13:19:13.343Z,21.80
2019-03-30T13:21:52.450Z,21.60
2019-03-30T13:24:12.724Z,21.30
2019-03-30T13:26:41.551Z,21.00
2019-03-30T13:29:10.107Z,21.20
2019-03-30T13:31:38.479Z,21.40
2019-03-30T13:34:07.122Z,21.50
2019-03-30T13:36:38.340Z,21.60
2019-03-30T13:39:07.088Z,21.50
2019-03-30T13:41:35.986Z,21.30
2019-03-30T13:44:04.821Z,21.30
2019-03-30T13:46:34.026Z,21.30
2019-03-30T13:49:03.129Z,21.60
2019-03-30T13:51:31.684Z,21.60
2019-03-30T13:54:00.356Z,21.60
2019-03-30T13:56:28.857Z,21.60
2019-03-30T13:58:57.755Z,21.70
2019-03-30T14:01:26.644Z,21.70
2019-03-30T14:03:55.089Z,21.80
2019-03-30T14:06:23.313Z,22.00
2019-03-30T14:08:51.576Z,22.00
2019-03-30T14:11:20.883Z,21.90
2019-03-30T14:13:49.523Z,21.90
2019-03-30T14:16:17.921Z,21.90
2019-03-30T14:18:46.719Z,21.90
2019-03-30T14:21:15.921Z,21.80
2019-03-30T14:23:44.662Z,21.60
2019-03-30T14:26:14.397Z,21.60
2019-03-30T14:28:43.507Z,21.50
2019-03-30T14:31:12.508Z,21.60
2019-03-30T14:33:41.169Z,21.50
2019-03-30T14:36:10.146Z,21.10
2019-03-30T14:38:38.971Z,21.10
2019-03-30T14:41:08.207Z,21.00
2019-03-30T14:43:36.830Z,20.60
2019-03-30T14:46:05.639Z,20.60
2019-03-30T14:48:34.656Z,20.60
2019-03-30T14:51:03.631Z,20.90
2019-03-30T14:53:32.622Z,21.00
2019-03-30T14:56:01.624Z,21.30
2019-03-30T14:58:30.316Z,21.30
2019-03-30T15:01:03.115Z,21.00
2019-03-30T15:03:30.548Z,20.80
2019-03-30T15:05:59.439Z,20.90
2019-03-30T15:08:28.327Z,21.10
2019-03-30T15:10:56.986Z,21.20
2019-03-30T15:13:25.825Z,21.30
2019-03-30T15:15:55.052Z,21.40
2019-03-30T15:18:23.981Z,21.30
2019-03-30T15:20:52.652Z,21.40
2019-03-30T15:23:21.671Z,21.50
2019-03-30T15:25:50.476Z,21.40
2019-03-30T15:28:19.457Z,21.50
2019-03-30T15:30:48.345Z,21.30
2019-03-30T15:33:17.639Z,21.20
2019-03-30T15:35:49.258Z,21.20
2019-03-30T15:38:17.788Z,21.20
2019-03-30T15:41:07.973Z,21.10
2019-03-30T15:43:38.675Z,21.20
2019-03-30T15:46:06.548Z,21.20
2019-03-30T15:48:34.855Z,21.10
2019-03-30T15:51:03.919Z,21.10
2019-03-30T15:53:33.249Z,21.00
2019-03-30T15:56:03.385Z,21.00
2019-03-30T15:58:32.726Z,20.80
2019-03-30T16:01:01.372Z,20.60
2019-03-30T16:03:29.959Z,20.40
2019-03-30T16:05:59.069Z,20.10
2019-03-30T16:08:28.059Z,20.00
2019-03-30T16:10:56.718Z,20.00
2019-03-30T16:13:25.107Z,19.80
2019-03-30T16:15:53.584Z,19.80
2019-03-30T16:18:22.271Z,19.70
2019-03-30T16:20:50.970Z,19.70
2019-03-30T16:23:19.606Z,19.70
2019-03-30T16:25:48.280Z,19.60
2019-03-30T16:28:17.034Z,19.60
2019-03-30T16:30:45.379Z,19.50
2019-03-30T16:33:14.038Z,19.50
2019-03-30T16:35:42.433Z,19.50
2019-03-30T16:38:11.736Z,19.50
2019-03-30T16:40:40.543Z,19.50
2019-03-30T16:43:09.179Z,19.50
2019-03-30T16:45:37.819Z,19.60
2019-03-30T16:48:06.185Z,19.60
2019-03-30T16:50:34.547Z,19.50
2019-03-30T16:53:03.367Z,19.40
2019-03-30T16:55:31.599Z,19.30
2019-03-30T16:58:00.345Z,19.30
2019-03-30T17:00:32.429Z,19.40
2019-03-30T17:03:01.459Z,19.30
2019-03-30T17:05:30.684Z,19.30
2019-03-30T17:07:59.655Z,19.30
2019-03-30T17:10:29.304Z,19.20
2019-03-30T17:12:58.587Z,19.30
2019-03-30T17:15:27.678Z,19.20
2019-03-30T17:17:56.490Z,19.20
2019-03-30T17:20:25.030Z,19.20
2019-03-30T17:22:53.414Z,19.20
2019-03-30T17:25:22.075Z,19.10
2019-03-30T17:27:58.081Z,19.00
2019-03-30T17:30:21.948Z,19.00
2019-03-30T17:32:51.032Z,18.90
2019-03-30T17:35:19.855Z,18.90
2019-03-30T17:37:49.125Z,18.80
2019-03-30T17:40:18.297Z,18.80
2019-03-30T17:42:46.735Z,18.70
2019-03-30T17:45:15.311Z,18.70
2019-03-30T17:47:43.807Z,18.60
2019-03-30T17:50:13.043Z,18.50
2019-03-30T17:52:41.903Z,18.50
2019-03-30T17:55:10.817Z,18.40
2019-03-30T17:57:39.418Z,18.30
2019-03-30T18:00:09.643Z,18.30
2019-03-30T18:02:38.431Z,18.20
2019-03-30T18:05:07.492Z,18.10
2019-03-30T18:07:36.349Z,18.10
2019-03-30T18:10:05.283Z,18.00
2019-03-30T18:12:33.554Z,17.90
2019-03-30T18:15:02.088Z,17.90
2019-03-30T18:17:31.160Z,17.80
2019-03-30T18:19:59.724Z,17.70
2019-03-30T18:22:28.198Z,17.70
2019-03-30T18:24:57.120Z,17.60
2019-03-30T18:27:40.859Z,17.50
2019-03-30T18:30:10.782Z,17.40
2019-03-30T18:32:40.712Z,17.30
2019-03-30T18:35:09.437Z,17.20
2019-03-30T18:37:38.863Z,17.10
2019-03-30T18:40:07.462Z,17.00
2019-03-30T18:42:36.342Z,16.90
2019-03-30T18:45:05.859Z,16.90
2019-03-30T18:47:34.248Z,16.90
2019-03-30T18:50:02.494Z,16.80
2019-03-30T18:52:30.784Z,16.80
2019-03-30T18:54:59.731Z,16.70
2019-03-30T18:57:28.767Z,16.70
2019-03-30T18:59:57.588Z,16.60
2019-03-30T19:02:26.184Z,16.50
2019-03-30T19:04:54.544Z,16.40
2019-03-30T19:07:23.035Z,16.30
2019-03-30T19:09:51.394Z,16.20
2019-03-30T19:12:19.975Z,16.10
2019-03-30T19:14:49.067Z,16.10
2019-03-30T19:17:17.807Z,16.00
2019-03-30T19:19:46.033Z,15.90
2019-03-30T19:22:14.259Z,15.70
2019-03-30T19:24:42.574Z,15.60
2019-03-30T19:27:11.459Z,15.50
2019-03-30T19:29:39.867Z,15.40
2019-03-30T19:32:08.095Z,15.30
2019-03-30T19:34:36.673Z,15.20
2019-03-30T19:37:05.095Z,15.10
2019-03-30T19:39:33.666Z,15.00
2019-03-30T19:42:01.969Z,15.00
2019-03-30T19:44:30.195Z,14.90
2019-03-30T19:46:58.553Z,14.80
2019-03-30T19:49:27.007Z,14.80
2019-03-30T19:51:55.386Z,14.70
2019-03-30T19:54:23.643Z,14.50
2019-03-30T19:56:51.891Z,14.50
2019-03-30T19:59:20.189Z,14.40
2019-03-30T20:01:48.609Z,14.30
2019-03-30T20:04:17.183Z,14.20
2019-03-30T20:06:45.501Z,14.20
2019-03-30T20:09:13.757Z,14.30
2019-03-30T20:11:42.382Z,14.20
2019-03-30T20:14:10.965Z,14.00
2019-03-30T20:16:42.223Z,14.00
2019-03-30T20:19:12.474Z,13.90
2019-03-30T20:21:40.720Z,13.80
2019-03-30T20:24:09.507Z,13.70
2019-03-30T20:26:38.707Z,13.60
2019-03-30T20:29:07.400Z,13.60
2019-03-30T20:31:36.119Z,13.40
2019-03-30T20:34:05.173Z,13.30
2019-03-30T20:36:35.387Z,13.20
2019-03-30T20:39:08.238Z,13.20
2019-03-30T20:41:36.044Z,13.00
2019-03-30T20:44:05.359Z,13.00
2019-03-30T20:46:33.824Z,12.90
2019-03-30T20:49:02.420Z,12.80
2019-03-30T20:51:31.440Z,12.70
2019-03-30T20:54:00.061Z,12.60
2019-03-30T20:56:28.909Z,12.50
2019-03-30T20:58:57.887Z,12.40
2019-03-30T21:01:27.055Z,12.30
2019-03-30T21:03:56.384Z,12.20
2019-03-30T21:06:25.033Z,12.20
2019-03-30T21:08:53.922Z,12.00
2019-03-30T21:11:22.854Z,12.00
2019-03-30T21:13:52.044Z,11.90
2019-03-30T21:16:20.691Z,11.90
2019-03-30T21:18:49.210Z,11.80
2019-03-30T21:21:17.752Z,11.70
2019-03-30T21:23:46.474Z,11.60
2019-03-30T21:26:15.567Z,11.50
2019-03-30T21:28:44.828Z,11.40
2019-03-30T21:31:13.764Z,11.40
2019-03-30T21:33:42.440Z,11.30
2019-03-30T21:36:11.117Z,11.20
2019-03-30T21:38:40.431Z,11.10
2019-03-30T21:41:09.083Z,11.10
2019-03-30T21:43:37.895Z,11.10
2019-03-30T21:46:06.918Z,11.10
2019-03-30T21:48:35.885Z,11.10
2019-03-30T21:51:04.987Z,11.10
2019-03-30T21:53:34.091Z,11.10
2019-03-30T21:56:03.376Z,11.10
2019-03-30T21:58:32.067Z,11.10
2019-03-30T22:01:00.712Z,11.10
2019-03-30T22:03:29.750Z,11.00
2019-03-30T22:05:58.533Z,11.00
2019-03-30T22:08:27.815Z,11.10
2019-03-30T22:10:56.399Z,11.00
2019-03-30T22:13:25.288Z,11.00
2019-03-30T22:15:55.583Z,11.00
2019-03-30T22:18:24.002Z,11.00
2019-03-30T22:20:52.812Z,11.00
2019-03-30T22:23:23.110Z,11.00
2019-03-30T22:25:51.882Z,11.00
2019-03-30T22:28:20.783Z,11.00
2019-03-30T22:30:49.276Z,11.00
2019-03-30T22:33:18.592Z,11.00
2019-03-30T22:35:47.269Z,11.00
2019-03-30T22:38:15.951Z,11.00
2019-03-30T22:40:44.752Z,10.90
2019-03-30T22:43:13.643Z,11.00
2019-03-30T22:45:42.942Z,11.10
2019-03-30T22:48:11.942Z,11.00
2019-03-30T22:50:40.576Z,11.00
2019-03-30T22:53:09.294Z,11.00
2019-03-30T22:55:38.619Z,11.00
2019-03-30T22:58:07.259Z,11.10
2019-03-30T23:00:55.136Z,11.10
2019-03-30T23:03:23.942Z,11.00
2019-03-30T23:05:52.743Z,11.00
2019-03-30T23:08:21.484Z,11.00
2019-03-30T23:10:50.687Z,11.00
2019-03-30T23:13:19.710Z,11.00
2019-03-30T23:15:48.676Z,11.00
2019-03-30T23:18:17.995Z,11.00
2019-03-30T23:20:46.674Z,10.90
2019-03-30T23:23:15.655Z,10.90
2019-03-30T23:25:44.465Z,10.80
2019-03-30T23:28:13.456Z,10.80
2019-03-30T23:30:53.436Z,10.80
2019-03-30T23:33:13.505Z,10.80
2019-03-30T23:35:42.493Z,10.80
2019-03-30T23:38:11.244Z,10.70
2019-03-30T23:40:40.442Z,10.70
2019-03-30T23:43:09.127Z,10.60
2019-03-30T23:45:37.800Z,10.60
2019-03-30T23:48:06.816Z,10.50
2019-03-30T23:50:35.726Z,10.50
2019-03-30T23:53:07.291Z,10.40
2019-03-30T23:55:36.649Z,10.50
2019-03-30T23:58:05.255Z,10.50
